createdAt,value
2023-03-21T00:00:42.782Z,10.83
2023-03-21T00:03:09.529Z,10.91
2023-03-21T00:05:43.101Z,10.69
2023-03-21T00:08:09.874Z,10.87
2023-03-21T00:10:43.464Z,10.72
2023-03-21T00:13:15.055Z,10.84
2023-03-21T00:16:08.333Z,10.77
2023-03-21T00:18:42.594Z,10.70
2023-03-21T00:23:59.726Z,10.68
2023-03-21T00:26:26.928Z,10.66
2023-03-21T00:28:53.458Z,10.59
2023-03-21T00:31:20.945Z,10.51
2023-03-21T00:33:49.582Z,10.78
2023-03-21T00:36:16.426Z,10.60
2023-03-21T00:38:43.411Z,10.75
2023-03-21T00:41:23.409Z,10.73
2023-03-21T00:43:58.242Z,10.73
2023-03-21T00:46:27.627Z,10.60
2023-03-21T00:48:56.967Z,10.72
2023-03-21T00:51:27.090Z,10.61
2023-03-21T00:53:56.075Z,10.58
2023-03-21T00:56:22.878Z,10.68
2023-03-21T00:58:49.806Z,10.83
2023-03-21T01:01:16.874Z,10.76
2023-03-21T01:03:50.882Z,10.72
2023-03-21T01:06:19.764Z,10.76
2023-03-21T01:08:52.716Z,10.70
2023-03-21T01:11:24.703Z,10.57
2023-03-21T01:13:57.795Z,10.39
2023-03-21T01:16:28.886Z,10.55
2023-03-21T01:18:56.223Z,10.72
2023-03-21T01:21:23.173Z,10.69
2023-03-21T01:23:49.747Z,10.82
2023-03-21T01:26:16.427Z,10.75
2023-03-21T01:28:45.376Z,10.84
2023-03-21T01:31:15.765Z,10.64
2023-03-21T01:33:43.093Z,10.51
2023-03-21T01:36:15.905Z,10.64
2023-03-21T01:38:43.970Z,10.67
2023-03-21T01:41:36.645Z,10.96
2023-03-21T01:44:19.063Z,10.79
2023-03-21T01:47:07.370Z,10.75
2023-03-21T01:49:49.695Z,10.80
2023-03-21T01:52:37.669Z,10.68
2023-03-21T01:55:12.779Z,10.74
2023-03-21T01:58:06.840Z,10.86
2023-03-21T02:00:55.143Z,10.78
2023-03-21T02:03:38.358Z,10.88
2023-03-21T02:06:35.329Z,10.84
2023-03-21T02:09:33.591Z,10.97
2023-03-21T02:12:01.446Z,10.75
2023-03-21T02:14:33.939Z,10.72
2023-03-21T02:17:15.065Z,10.90
2023-03-21T02:20:17.901Z,10.92
2023-03-21T02:22:56.956Z,11.00
2023-03-21T02:26:01.806Z,11.09
2023-03-21T02:28:41.798Z,11.05
2023-03-21T02:31:35.802Z,10.99
2023-03-21T02:34:17.806Z,10.96
2023-03-21T02:37:05.626Z,11.06
2023-03-21T02:39:45.185Z,11.10
2023-03-21T02:42:37.958Z,11.02
2023-03-21T02:45:19.324Z,10.95
2023-03-21T02:48:00.621Z,10.92
2023-03-21T02:50:37.518Z,11.04
2023-03-21T02:53:08.420Z,11.07
2023-03-21T02:55:37.472Z,11.10
2023-03-21T02:58:13.236Z,11.07
2023-03-21T03:00:47.417Z,11.14
2023-03-21T03:03:33.332Z,11.22
2023-03-21T03:06:03.952Z,11.26
2023-03-21T03:09:02.309Z,11.23
2023-03-21T03:11:43.081Z,11.32
2023-03-21T03:14:31.583Z,11.36
2023-03-21T03:17:28.538Z,11.37
2023-03-21T03:20:32.567Z,11.29
2023-03-21T03:23:25.292Z,11.36
2023-03-21T03:26:08.975Z,11.33
2023-03-21T03:28:45.828Z,11.19
2023-03-21T03:31:25.798Z,11.00
2023-03-21T03:34:02.164Z,11.20
2023-03-21T03:36:36.857Z,11.24
2023-03-21T03:39:11.198Z,11.28
2023-03-21T03:42:12.573Z,11.26
2023-03-21T03:44:37.853Z,11.32
2023-03-21T03:47:06.203Z,11.34
2023-03-21T03:49:41.922Z,11.21
2023-03-21T03:52:17.352Z,11.11
2023-03-21T03:54:49.482Z,11.23
2023-03-21T03:57:16.688Z,11.22
2023-03-21T03:59:45.732Z,11.08
2023-03-21T04:02:21.830Z,11.14
2023-03-21T04:04:52.951Z,11.17
2023-03-21T04:07:22.255Z,11.17
2023-03-21T04:09:51.903Z,11.32
2023-03-21T04:12:20.475Z,11.29
2023-03-21T04:15:10.859Z,11.33
2023-03-21T04:17:41.833Z,11.34
2023-03-21T04:20:13.059Z,11.33
2023-03-21T04:22:43.704Z,11.15
2023-03-21T04:25:10.909Z,11.27
2023-03-21T04:27:37.835Z,11.15
2023-03-21T04:30:27.863Z,11.08
2023-03-21T04:33:04.979Z,11.20
2023-03-21T04:35:37.061Z,11.22
2023-03-21T04:38:05.504Z,11.05
2023-03-21T04:40:32.173Z,11.04
2023-03-21T04:43:01.177Z,11.18
2023-03-21T04:45:28.433Z,11.18
2023-03-21T04:47:55.887Z,11.24
2023-03-21T04:50:22.520Z,10.91
2023-03-21T04:52:49.129Z,11.20
2023-03-21T04:55:15.937Z,11.10
2023-03-21T04:57:42.643Z,11.18
2023-03-21T05:00:18.628Z,11.33
2023-03-21T05:02:46.125Z,11.25
2023-03-21T05:05:13.534Z,11.18
2023-03-21T05:07:41.255Z,11.12
2023-03-21T05:10:12.116Z,11.21
2023-03-21T05:12:41.376Z,11.18
2023-03-21T05:15:09.081Z,11.22
2023-03-21T05:17:36.627Z,11.03
2023-03-21T05:20:04.713Z,11.22
2023-03-21T05:22:40.807Z,10.96
2023-03-21T05:25:12.209Z,11.07
2023-03-21T05:28:03.493Z,11.09
2023-03-21T05:30:31.349Z,10.93
2023-03-21T05:33:00.524Z,11.06
2023-03-21T05:35:27.578Z,11.10
2023-03-21T05:37:57.010Z,11.08
2023-03-21T05:40:25.128Z,11.13
2023-03-21T05:42:55.524Z,11.20
2023-03-21T05:45:23.267Z,11.30
2023-03-21T05:47:51.521Z,11.09
2023-03-21T05:50:20.759Z,11.00
2023-03-21T05:53:00.878Z,11.20
2023-03-21T05:55:28.031Z,11.28
2023-03-21T05:57:56.554Z,11.34
2023-03-21T06:00:27.956Z,11.37
2023-03-21T06:03:18.585Z,11.42
2023-03-21T06:05:58.773Z,11.39
2023-03-21T06:08:32.736Z,11.42
2023-03-21T06:11:00.147Z,11.33
2023-03-21T06:13:26.864Z,11.30
2023-03-21T06:15:53.679Z,11.34
2023-03-21T06:18:23.846Z,11.24
2023-03-21T06:20:58.926Z,11.21
2023-03-21T06:23:25.770Z,11.25
2023-03-21T06:25:53.324Z,11.36
2023-03-21T06:28:20.472Z,11.29
2023-03-21T06:30:47.017Z,11.21
2023-03-21T06:33:18.667Z,11.32
2023-03-21T06:35:50.353Z,11.34
2023-03-21T06:38:17.531Z,11.30
2023-03-21T06:40:46.935Z,11.33
2023-03-21T06:43:14.297Z,11.23
2023-03-21T06:45:40.991Z,11.38
2023-03-21T06:48:10.380Z,11.47
2023-03-21T06:50:44.605Z,11.46
2023-03-21T06:53:11.161Z,11.35
2023-03-21T06:55:57.649Z,11.34
2023-03-21T06:58:24.665Z,11.52
2023-03-21T07:00:51.341Z,11.60
2023-03-21T07:03:19.185Z,11.56
2023-03-21T07:05:46.773Z,11.70
2023-03-21T07:08:15.287Z,11.72
2023-03-21T07:10:45.420Z,11.74
2023-03-21T07:13:13.446Z,11.65
2023-03-21T07:16:02.766Z,11.62
2023-03-21T07:18:30.878Z,11.57
2023-03-21T07:20:57.477Z,11.68
2023-03-21T07:23:25.873Z,11.46
2023-03-21T07:25:54.126Z,11.63
2023-03-21T07:28:21.053Z,11.62
2023-03-21T07:30:57.466Z,11.56
2023-03-21T07:33:26.236Z,11.57
2023-03-21T07:35:57.858Z,11.53
2023-03-21T07:38:24.755Z,11.27
2023-03-21T07:40:51.755Z,11.26
2023-03-21T07:45:57.189Z,11.42
2023-03-21T07:48:23.908Z,11.59
2023-03-21T07:50:51.024Z,11.68
2023-03-21T07:53:17.832Z,11.60
2023-03-21T07:55:44.463Z,11.41
2023-03-21T07:58:11.095Z,11.40
2023-03-21T08:00:37.663Z,11.55
2023-03-21T08:03:04.368Z,11.51
2023-03-21T08:05:35.620Z,11.34
2023-03-21T08:08:02.601Z,11.47
2023-03-21T08:10:29.250Z,11.58
2023-03-21T08:12:55.947Z,11.52
2023-03-21T08:15:22.964Z,11.40
2023-03-21T08:17:49.735Z,11.45
2023-03-21T08:20:21.695Z,11.35
2023-03-21T08:22:49.507Z,11.39
2023-03-21T08:25:18.373Z,11.25
2023-03-21T08:27:46.601Z,11.30
2023-03-21T08:30:16.664Z,11.42
2023-03-21T08:32:43.667Z,11.32
2023-03-21T08:35:13.805Z,11.23
2023-03-21T08:37:42.425Z,11.28
2023-03-21T08:40:13.328Z,11.30
2023-03-21T08:42:41.688Z,11.46
2023-03-21T08:45:09.236Z,11.51
2023-03-21T08:47:35.972Z,11.55
2023-03-21T08:50:06.636Z,11.54
2023-03-21T08:52:33.805Z,11.49
2023-03-21T08:55:02.127Z,11.56
2023-03-21T08:57:29.188Z,11.32
2023-03-21T08:59:55.766Z,11.31
2023-03-21T09:02:22.519Z,11.45
2023-03-21T09:04:49.193Z,11.18
2023-03-21T09:07:18.003Z,11.19
2023-03-21T09:09:47.614Z,11.61
2023-03-21T09:12:17.333Z,11.70
2023-03-21T09:14:43.943Z,11.56
2023-03-21T09:17:10.593Z,11.35
2023-03-21T09:19:38.805Z,11.37
2023-03-21T09:22:05.993Z,11.47
2023-03-21T09:24:32.894Z,11.64
2023-03-21T09:26:59.501Z,11.50
2023-03-21T09:29:26.904Z,11.33
2023-03-21T09:31:53.857Z,11.34
2023-03-21T09:34:20.858Z,11.45
2023-03-21T09:36:48.505Z,11.49
2023-03-21T09:39:16.192Z,11.37
2023-03-21T09:42:00.969Z,11.49
2023-03-21T09:44:37.959Z,11.61
2023-03-21T09:47:34.705Z,11.60
2023-03-21T09:50:14.477Z,11.46
2023-03-21T09:53:07.273Z,11.47
2023-03-21T09:55:38.536Z,11.48
2023-03-21T09:58:20.461Z,11.67
2023-03-21T10:00:53.584Z,11.46
2023-03-21T10:03:24.487Z,11.91
2023-03-21T10:05:52.862Z,11.87
2023-03-21T10:08:27.443Z,11.88
2023-03-21T10:10:58.951Z,11.87
2023-03-21T10:13:32.188Z,11.79
2023-03-21T10:16:02.121Z,11.78
2023-03-21T10:18:31.733Z,11.80
2023-03-21T10:20:58.306Z,11.75
2023-03-21T10:23:29.781Z,11.97
2023-03-21T10:26:01.071Z,12.11
2023-03-21T10:28:49.919Z,12.25
2023-03-21T10:31:28.409Z,12.18
2023-03-21T10:33:57.811Z,12.12
2023-03-21T10:36:27.252Z,12.17
2023-03-21T10:38:57.245Z,11.95
2023-03-21T10:41:23.877Z,11.98
2023-03-21T10:44:14.470Z,12.15
2023-03-21T10:46:56.037Z,12.32
2023-03-21T10:49:23.344Z,12.29
2023-03-21T10:51:52.850Z,12.13
2023-03-21T10:54:22.287Z,12.31
2023-03-21T10:57:00.960Z,12.17
2023-03-21T10:59:35.784Z,12.31
2023-03-21T11:02:04.328Z,12.39
2023-03-21T11:04:31.219Z,12.47
2023-03-21T11:07:07.435Z,12.65
2023-03-21T11:09:53.498Z,12.34
2023-03-21T11:12:39.683Z,12.31
2023-03-21T11:15:42.862Z,12.54
2023-03-21T11:18:26.009Z,12.48
2023-03-21T11:20:58.541Z,12.44
2023-03-21T11:23:28.808Z,12.56
2023-03-21T11:25:56.013Z,12.26
2023-03-21T11:28:28.541Z,12.23
2023-03-21T11:30:58.257Z,12.32
2023-03-21T11:33:36.565Z,12.56
2023-03-21T11:36:07.906Z,12.48
2023-03-21T11:38:39.839Z,12.30
2023-03-21T11:41:07.495Z,12.36
2023-03-21T11:43:39.289Z,12.49
2023-03-21T11:46:13.967Z,12.48
2023-03-21T11:48:43.901Z,12.60
2023-03-21T11:51:35.285Z,12.54
2023-03-21T11:54:14.225Z,12.50
2023-03-21T11:56:47.582Z,12.65
2023-03-21T11:59:23.211Z,12.65
2023-03-21T12:02:14.632Z,12.67
2023-03-21T12:04:47.037Z,12.76
2023-03-21T12:07:26.421Z,12.68
2023-03-21T12:10:09.100Z,12.31
2023-03-21T12:12:58.716Z,12.50
2023-03-21T12:16:13.916Z,12.63
2023-03-21T12:19:12.318Z,12.60
2023-03-21T12:22:21.318Z,12.73
2023-03-21T12:24:54.893Z,12.83
2023-03-21T12:27:43.182Z,12.91
2023-03-21T12:30:09.748Z,12.80
2023-03-21T12:33:08.711Z,13.01
2023-03-21T12:35:38.482Z,13.06
2023-03-21T12:38:39.448Z,13.08
2023-03-21T12:41:35.293Z,13.05
2023-03-21T12:44:10.350Z,12.86
2023-03-21T12:46:52.764Z,12.85
2023-03-21T12:49:42.995Z,12.94
2023-03-21T12:52:16.505Z,12.81
2023-03-21T12:54:51.146Z,13.13
2023-03-21T12:57:32.680Z,13.08
2023-03-21T13:00:10.724Z,12.85
2023-03-21T13:02:59.946Z,13.05
2023-03-21T13:05:32.880Z,13.08
2023-03-21T13:08:22.729Z,13.12
2023-03-21T13:10:49.502Z,12.98
2023-03-21T13:13:27.030Z,13.35
2023-03-21T13:16:27.808Z,13.30
2023-03-21T13:19:20.815Z,13.38
2023-03-21T13:22:09.092Z,13.12
2023-03-21T13:24:47.145Z,13.34
2023-03-21T13:27:29.496Z,13.42
2023-03-21T13:30:17.827Z,13.38
2023-03-21T13:32:48.407Z,13.53
2023-03-21T13:35:19.779Z,13.39
2023-03-21T13:37:53.385Z,13.39
2023-03-21T13:40:23.489Z,13.63
2023-03-21T13:42:57.021Z,13.49
2023-03-21T13:45:28.806Z,13.50
2023-03-21T13:47:58.544Z,13.47
2023-03-21T13:50:29.498Z,13.77
2023-03-21T13:53:02.022Z,13.73
2023-03-21T13:55:30.841Z,13.79
2023-03-21T13:57:57.428Z,13.85
2023-03-21T14:00:30.880Z,14.11
2023-03-21T14:03:09.793Z,14.00
2023-03-21T14:05:37.599Z,14.16
2023-03-21T14:08:21.590Z,14.06
2023-03-21T14:10:59.689Z,13.95
2023-03-21T14:13:27.722Z,13.90
2023-03-21T14:16:00.911Z,13.77
2023-03-21T14:18:52.316Z,13.78
2023-03-21T14:21:25.494Z,13.90
2023-03-21T14:24:06.457Z,13.58
2023-03-21T14:26:36.186Z,13.47
2023-03-21T14:29:22.853Z,13.80
2023-03-21T14:31:51.644Z,13.38
2023-03-21T14:34:18.552Z,13.63
2023-03-21T14:36:56.901Z,13.87
2023-03-21T14:39:28.868Z,13.62
2023-03-21T14:42:02.158Z,13.61
2023-03-21T14:44:53.479Z,13.64
2023-03-21T14:47:21.242Z,13.55
2023-03-21T14:49:49.359Z,13.72
2023-03-21T14:52:26.390Z,13.47
2023-03-21T14:54:55.260Z,13.47
2023-03-21T14:57:25.680Z,13.40
2023-03-21T14:59:54.827Z,13.64
2023-03-21T15:02:26.767Z,13.40
2023-03-21T15:04:57.150Z,13.25
2023-03-21T15:07:33.507Z,13.39
2023-03-21T15:10:21.709Z,13.34
2023-03-21T15:13:12.642Z,13.19
2023-03-21T15:15:40.530Z,13.40
2023-03-21T15:18:08.676Z,13.52
2023-03-21T15:20:38.074Z,13.35
2023-03-21T15:23:15.630Z,13.40
2023-03-21T15:25:43.145Z,13.15
2023-03-21T15:28:13.858Z,13.30
2023-03-21T15:30:49.115Z,13.33
2023-03-21T15:33:16.468Z,13.27
2023-03-21T15:35:46.130Z,13.15
2023-03-21T15:38:39.900Z,13.16
2023-03-21T15:41:21.600Z,12.89
2023-03-21T15:44:09.106Z,13.10
2023-03-21T15:46:50.459Z,13.14
2023-03-21T15:49:32.881Z,13.17
2023-03-21T15:52:15.716Z,13.10
2023-03-21T15:54:44.088Z,12.91
2023-03-21T15:57:24.052Z,13.12
2023-03-21T15:59:55.848Z,13.13
2023-03-21T16:02:25.217Z,13.15
2023-03-21T16:05:23.892Z,13.27
2023-03-21T16:07:50.616Z,13.38
2023-03-21T16:10:29.531Z,13.48
2023-03-21T16:12:56.299Z,13.27
2023-03-21T16:15:25.742Z,13.17
2023-03-21T16:18:01.925Z,13.21
2023-03-21T16:20:34.170Z,13.21
2023-03-21T16:23:01.561Z,13.10
2023-03-21T16:25:30.015Z,13.13
2023-03-21T16:27:57.078Z,13.04
2023-03-21T16:30:24.035Z,13.09
2023-03-21T16:32:51.449Z,13.21
2023-03-21T16:35:18.670Z,13.46
2023-03-21T16:37:47.999Z,13.42
2023-03-21T16:40:31.559Z,13.30
2023-03-21T16:42:58.180Z,13.07
2023-03-21T16:45:25.051Z,13.08
2023-03-21T16:47:51.991Z,13.19
2023-03-21T16:50:25.212Z,13.34
2023-03-21T16:52:52.241Z,13.30
2023-03-21T16:55:19.817Z,13.27
2023-03-21T16:57:47.032Z,13.36
2023-03-21T17:00:20.530Z,13.06
2023-03-21T17:02:47.986Z,13.32
2023-03-21T17:05:15.029Z,13.39
2023-03-21T17:07:44.022Z,13.31
2023-03-21T17:10:15.339Z,13.02
2023-03-21T17:12:41.915Z,13.06
2023-03-21T17:15:09.511Z,13.17
2023-03-21T17:17:36.767Z,13.25
2023-03-21T17:20:15.057Z,13.38
2023-03-21T17:22:42.204Z,13.14
2023-03-21T17:25:09.074Z,13.20
2023-03-21T17:27:39.392Z,13.13
2023-03-21T17:30:27.561Z,12.99
2023-03-21T17:32:54.769Z,12.94
2023-03-21T17:35:23.444Z,12.92
2023-03-21T17:37:51.410Z,12.82
2023-03-21T17:40:24.802Z,12.85
2023-03-21T17:42:51.971Z,12.94
2023-03-21T17:45:20.002Z,12.99
2023-03-21T17:47:47.314Z,12.95
2023-03-21T17:50:18.856Z,12.96
2023-03-21T17:52:46.056Z,12.98
2023-03-21T17:55:14.719Z,12.93
2023-03-21T17:57:41.313Z,12.92
2023-03-21T18:00:14.215Z,12.99
2023-03-21T18:02:41.623Z,13.06
2023-03-21T18:05:09.537Z,13.06
2023-03-21T18:10:28.187Z,12.87
2023-03-21T18:12:58.319Z,12.88
2023-03-21T18:15:30.110Z,12.90
2023-03-21T18:17:57.666Z,12.82
2023-03-21T18:20:45.519Z,12.77
2023-03-21T18:23:14.291Z,12.86
2023-03-21T18:25:41.754Z,12.83
2023-03-21T18:28:11.972Z,12.72
2023-03-21T18:30:56.841Z,12.73
2023-03-21T18:33:27.266Z,12.68
2023-03-21T18:35:59.064Z,12.73
2023-03-21T18:38:27.735Z,12.76
2023-03-21T18:40:55.376Z,12.78
2023-03-21T18:46:09.196Z,12.67
2023-03-21T18:48:36.068Z,12.64
2023-03-21T18:51:03.689Z,12.72
2023-03-21T18:53:30.252Z,12.66
2023-03-21T18:55:57.492Z,12.55
2023-03-21T18:58:25.113Z,12.73
2023-03-21T19:00:53.539Z,12.46
2023-03-21T19:03:34.113Z,12.63
2023-03-21T19:06:03.915Z,12.61
2023-03-21T19:08:31.191Z,12.58
2023-03-21T19:11:00.139Z,12.58
2023-03-21T19:13:30.170Z,12.55
2023-03-21T19:15:57.117Z,12.62
2023-03-21T19:18:41.676Z,12.51
2023-03-21T19:21:10.448Z,12.53
2023-03-21T19:24:15.154Z,12.54
2023-03-21T19:26:27.582Z,12.48
2023-03-21T19:28:54.704Z,12.42
2023-03-21T19:31:21.974Z,12.42
2023-03-21T19:33:48.721Z,12.35
2023-03-21T19:36:21.858Z,12.33
2023-03-21T19:38:49.224Z,12.28
2023-03-21T19:41:16.488Z,12.35
2023-03-21T19:43:53.779Z,12.37
2023-03-21T19:46:24.846Z,12.29
2023-03-21T19:48:56.307Z,12.22
2023-03-21T19:51:28.601Z,12.23
2023-03-21T19:53:56.539Z,12.12
2023-03-21T19:56:26.440Z,12.06
2023-03-21T19:58:55.210Z,11.99
2023-03-21T20:01:22.361Z,12.08
2023-03-21T20:03:49.149Z,12.13
2023-03-21T20:06:16.585Z,12.09
2023-03-21T20:09:27.626Z,12.12
2023-03-21T20:11:29.770Z,12.06
2023-03-21T20:13:56.563Z,12.00
2023-03-21T20:16:23.241Z,12.05
2023-03-21T20:18:50.028Z,12.03
2023-03-21T20:21:18.503Z,11.87
2023-03-21T20:23:50.834Z,11.90
2023-03-21T20:26:18.374Z,11.86
2023-03-21T20:29:01.095Z,11.78
2023-03-21T20:31:37.683Z,11.66
2023-03-21T20:34:04.456Z,11.84
2023-03-21T20:36:41.112Z,11.89
2023-03-21T20:39:09.454Z,11.82
2023-03-21T20:41:36.102Z,11.95
2023-03-21T20:46:49.930Z,11.71
2023-03-21T20:49:16.690Z,11.66
2023-03-21T20:54:30.269Z,11.79
2023-03-21T20:56:57.216Z,11.90
2023-03-21T20:59:27.761Z,11.95
2023-03-21T21:01:57.192Z,11.71
2023-03-21T21:04:44.346Z,11.90
2023-03-21T21:07:15.973Z,11.98
2023-03-21T21:09:45.324Z,12.05
2023-03-21T21:12:13.655Z,12.00
2023-03-21T21:14:41.254Z,12.00
2023-03-21T21:17:24.554Z,11.95
2023-03-21T21:19:55.328Z,11.86
2023-03-21T21:22:21.926Z,11.85
2023-03-21T21:24:48.539Z,11.89
2023-03-21T21:27:15.082Z,11.75
2023-03-21T21:29:43.395Z,11.88
2023-03-21T21:32:11.157Z,11.93
2023-03-21T21:34:38.052Z,11.84
2023-03-21T21:37:05.072Z,11.87
2023-03-21T21:39:35.133Z,11.67
2023-03-21T21:42:02.242Z,11.60
2023-03-21T21:44:28.791Z,11.72
2023-03-21T21:46:55.443Z,11.58
2023-03-21T21:49:22.052Z,11.60
2023-03-21T21:51:48.676Z,11.65
2023-03-21T21:54:18.232Z,11.66
2023-03-21T21:56:48.570Z,11.66
2023-03-21T21:59:21.930Z,11.67
2023-03-21T22:01:51.201Z,11.63
2023-03-21T22:04:27.558Z,11.72
2023-03-21T22:06:57.233Z,11.71
2023-03-21T22:09:23.930Z,11.65
2023-03-21T22:11:50.510Z,11.67
2023-03-21T22:14:17.195Z,11.73
2023-03-21T22:16:43.997Z,11.66
2023-03-21T22:19:10.711Z,11.59
2023-03-21T22:21:37.324Z,11.58
2023-03-21T22:24:04.151Z,11.63
2023-03-21T22:26:30.694Z,11.55
2023-03-21T22:28:58.374Z,11.48
2023-03-21T22:31:26.333Z,11.58
2023-03-21T22:33:53.066Z,11.58
2023-03-21T22:36:20.118Z,11.53
2023-03-21T22:38:47.811Z,11.49
2023-03-21T22:41:14.441Z,11.53
2023-03-21T22:43:43.036Z,11.41
2023-03-21T22:46:09.635Z,11.48
2023-03-21T22:48:36.246Z,11.59
2023-03-21T22:51:02.924Z,11.47
2023-03-21T22:53:29.783Z,11.55
2023-03-21T22:55:56.592Z,11.54
2023-03-21T22:58:23.594Z,11.58
2023-03-21T23:00:50.328Z,11.43
2023-03-21T23:03:17.053Z,11.54
2023-03-21T23:05:44.945Z,11.44
2023-03-21T23:08:12.874Z,11.48
2023-03-21T23:10:41.317Z,11.37
2023-03-21T23:13:08.103Z,11.44
2023-03-21T23:15:34.708Z,11.41
2023-03-21T23:18:01.385Z,11.32
2023-03-21T23:20:28.095Z,11.41
2023-03-21T23:22:54.878Z,11.46
2023-03-21T23:25:21.787Z,11.37
2023-03-21T23:27:48.382Z,11.37
2023-03-21T23:30:16.564Z,11.40
2023-03-21T23:32:43.168Z,11.36
2023-03-21T23:35:11.357Z,11.38
2023-03-21T23:37:38.178Z,11.39
2023-03-21T23:40:08.983Z,11.45
2023-03-21T23:42:36.892Z,11.51
2023-03-21T23:45:04.053Z,11.48
2023-03-21T23:47:31.041Z,11.54
2023-03-21T23:49:57.912Z,11.61
2023-03-21T23:52:24.483Z,11.43
2023-03-21T23:54:51.161Z,11.51
2023-03-21T23:57:17.990Z,11.35
2023-03-21T23:59:46.850Z,11.47
